createdAt,value
2017-12-28T00:01:41.328Z,99.90
2017-12-28T00:04:11.205Z,99.90
2017-12-28T00:06:41.521Z,99.90
2017-12-28T00:09:11.063Z,99.90
2017-12-28T00:11:40.531Z,99.90
2017-12-28T00:14:10.038Z,99.90
2017-12-28T00:16:41.350Z,99.90
2017-12-28T00:19:10.872Z,99.90
2017-12-28T00:21:41.922Z,99.90
2017-12-28T00:24:12.170Z,99.90
2017-12-28T00:26:41.738Z,99.90
2017-12-28T00:29:11.252Z,99.90
2017-12-28T00:31:40.750Z,99.90
2017-12-28T00:34:11.053Z,99.90
2017-12-28T00:36:40.384Z,99.90
2017-12-28T00:39:09.870Z,99.90
2017-12-28T00:41:39.565Z,99.90
2017-12-28T00:44:08.709Z,99.90
2017-12-28T00:46:40.775Z,99.90
2017-12-28T00:49:10.261Z,99.90
2017-12-28T00:51:43.341Z,99.90
2017-12-28T00:54:13.040Z,99.90
2017-12-28T00:56:42.563Z,99.90
2017-12-28T00:59:12.436Z,99.90
2017-12-28T01:01:41.940Z,99.90
2017-12-28T01:04:11.463Z,99.90
2017-12-28T01:06:41.339Z,99.90
2017-12-28T01:09:10.848Z,99.90
2017-12-28T01:11:40.348Z,99.90
2017-12-28T01:14:10.352Z,99.90
2017-12-28T01:16:39.863Z,99.90
2017-12-28T01:19:10.877Z,99.90
2017-12-28T01:21:42.329Z,99.90
2017-12-28T01:24:11.843Z,99.90
2017-12-28T01:26:41.352Z,99.90
2017-12-28T01:29:10.861Z,99.90
2017-12-28T01:31:43.409Z,99.90
2017-12-28T01:34:12.908Z,99.90
2017-12-28T01:36:42.396Z,99.90
2017-12-28T01:39:13.032Z,99.90
2017-12-28T01:41:42.362Z,99.90
2017-12-28T01:44:11.853Z,99.90
2017-12-28T01:46:41.661Z,99.90
2017-12-28T01:49:11.156Z,99.90
2017-12-28T01:51:40.655Z,99.90
2017-12-28T01:54:10.287Z,99.90
2017-12-28T01:56:39.937Z,99.90
2017-12-28T01:59:09.437Z,99.90
2017-12-28T02:01:39.271Z,99.90
2017-12-28T02:04:08.760Z,99.90
2017-12-28T02:06:40.408Z,99.90
2017-12-28T02:09:11.080Z,99.90
2017-12-28T02:11:40.572Z,99.90
2017-12-28T02:14:10.143Z,99.90
2017-12-28T02:16:41.683Z,99.90
2017-12-28T02:19:11.251Z,99.90
2017-12-28T02:21:41.863Z,99.90
2017-12-28T02:24:11.364Z,99.90
2017-12-28T02:26:40.864Z,99.90
2017-12-28T02:29:12.303Z,99.90
2017-12-28T02:31:42.147Z,99.90
2017-12-28T02:34:11.642Z,99.90
2017-12-28T02:36:41.159Z,99.90
2017-12-28T02:39:11.784Z,99.90
2017-12-28T02:41:42.036Z,99.90
2017-12-28T02:44:13.487Z,99.90
2017-12-28T02:46:43.044Z,99.90
2017-12-28T02:49:12.600Z,99.90
2017-12-28T02:51:42.699Z,99.90
2017-12-28T02:54:12.386Z,99.90
2017-12-28T02:56:41.920Z,99.90
2017-12-28T02:59:11.424Z,99.90
2017-12-28T03:01:41.688Z,99.90
2017-12-28T03:04:11.712Z,99.90
2017-12-28T03:06:41.252Z,99.90
2017-12-28T03:09:10.796Z,99.90
2017-12-28T03:11:41.970Z,99.90
2017-12-28T03:14:11.460Z,99.90
2017-12-28T03:16:40.964Z,99.90
2017-12-28T03:19:10.810Z,99.90
2017-12-28T03:21:41.825Z,99.90
2017-12-28T03:24:11.328Z,99.90
2017-12-28T03:26:40.621Z,99.90
2017-12-28T03:29:10.117Z,99.90
2017-12-28T03:31:42.284Z,99.90
2017-12-28T03:34:11.853Z,99.90
2017-12-28T03:36:41.201Z,99.90
2017-12-28T03:39:11.088Z,99.90
2017-12-28T03:41:40.575Z,99.90
2017-12-28T03:44:12.044Z,99.90
2017-12-28T03:46:42.360Z,99.90
2017-12-28T03:49:12.998Z,99.90
2017-12-28T03:51:42.481Z,99.90
2017-12-28T03:54:12.026Z,99.90
2017-12-28T03:56:41.631Z,99.90
2017-12-28T03:59:11.883Z,99.90
2017-12-28T04:01:41.790Z,99.90
2017-12-28T04:04:11.276Z,99.90
2017-12-28T04:06:40.817Z,99.90
2017-12-28T04:09:12.538Z,99.90
2017-12-28T04:11:42.028Z,99.90
2017-12-28T04:14:11.229Z,99.90
2017-12-28T04:16:41.864Z,99.90
2017-12-28T04:19:12.132Z,99.90
2017-12-28T04:21:42.752Z,99.90
2017-12-28T04:24:12.247Z,99.90
2017-12-28T04:26:41.759Z,99.90
2017-12-28T04:29:11.655Z,99.90
2017-12-28T04:31:41.137Z,99.90
2017-12-28T04:34:12.109Z,99.90
2017-12-28T04:36:41.705Z,99.90
2017-12-28T04:39:11.187Z,99.90
2017-12-28T04:41:41.162Z,99.90
2017-12-28T04:44:10.621Z,99.90
2017-12-28T04:46:40.129Z,99.90
2017-12-28T04:49:12.112Z,99.90
2017-12-28T04:51:42.372Z,99.90
2017-12-28T04:54:11.958Z,99.90
2017-12-28T04:56:41.432Z,99.90
2017-12-28T04:59:11.692Z,99.90
2017-12-28T05:01:41.602Z,99.90
2017-12-28T05:04:11.086Z,99.90
2017-12-28T05:06:40.589Z,99.90
2017-12-28T05:09:10.507Z,99.90
2017-12-28T05:11:40.768Z,99.90
2017-12-28T05:14:11.122Z,99.90
2017-12-28T05:16:40.658Z,99.90
2017-12-28T05:19:12.401Z,99.90
2017-12-28T05:21:41.916Z,99.90
2017-12-28T05:24:11.722Z,99.90
2017-12-28T05:26:41.603Z,99.90
2017-12-28T05:29:11.096Z,99.90
2017-12-28T05:31:40.616Z,99.90
2017-12-28T05:34:12.249Z,99.90
2017-12-28T05:36:41.745Z,99.90
2017-12-28T05:39:11.256Z,99.90
2017-12-28T05:41:40.808Z,99.90
2017-12-28T05:44:10.108Z,99.90
2017-12-28T05:46:39.460Z,99.90
2017-12-28T05:49:09.127Z,99.90
2017-12-28T05:51:38.449Z,99.90
2017-12-28T05:54:08.028Z,99.90
2017-12-28T05:56:37.931Z,99.90
2017-12-28T05:59:08.673Z,99.90
2017-12-28T06:01:38.144Z,99.90
2017-12-28T06:04:08.414Z,99.90
2017-12-28T06:06:40.365Z,99.90
2017-12-28T06:09:09.913Z,99.90
2017-12-28T06:11:41.263Z,99.90
2017-12-28T06:14:10.753Z,99.90
2017-12-28T06:16:42.213Z,99.90
2017-12-28T06:19:11.782Z,99.90
2017-12-28T06:21:40.998Z,99.90
2017-12-28T06:24:10.711Z,99.90
2017-12-28T06:26:40.032Z,99.90
2017-12-28T06:29:09.820Z,99.90
2017-12-28T06:31:39.720Z,99.90
2017-12-28T06:34:09.229Z,99.90
2017-12-28T06:36:38.718Z,99.90
2017-12-28T06:39:08.682Z,99.90
2017-12-28T06:41:39.992Z,99.90
2017-12-28T06:44:12.177Z,99.90
2017-12-28T06:46:41.709Z,99.90
2017-12-28T06:49:11.236Z,99.90
2017-12-28T06:51:41.233Z,99.90
2017-12-28T06:54:10.787Z,99.90
2017-12-28T06:56:40.302Z,99.90
2017-12-28T06:59:11.765Z,99.90
2017-12-28T07:01:41.452Z,99.90
2017-12-28T07:04:10.956Z,99.90
2017-12-28T07:06:42.182Z,99.90
2017-12-28T07:09:12.436Z,99.90
2017-12-28T07:11:41.957Z,99.90
2017-12-28T07:14:11.532Z,99.90
2017-12-28T07:16:41.406Z,99.90
2017-12-28T07:19:11.178Z,99.90
2017-12-28T07:21:42.516Z,99.90
2017-12-28T07:24:12.208Z,99.90
2017-12-28T07:26:41.752Z,99.90
2017-12-28T07:29:11.913Z,99.90
2017-12-28T07:31:41.419Z,99.90
2017-12-28T07:34:11.192Z,99.90
2017-12-28T07:36:40.651Z,99.90
2017-12-28T07:39:11.424Z,99.90
2017-12-28T07:41:40.915Z,99.90
2017-12-28T07:44:10.443Z,99.90
2017-12-28T07:46:41.094Z,99.90
2017-12-28T07:49:10.780Z,99.90
2017-12-28T07:51:40.285Z,99.90
2017-12-28T07:54:10.352Z,99.90
2017-12-28T07:56:39.666Z,99.90
2017-12-28T07:59:09.197Z,99.90
2017-12-28T08:01:39.053Z,99.90
2017-12-28T08:04:10.405Z,99.90
2017-12-28T08:06:39.930Z,99.90
2017-12-28T08:09:11.226Z,99.90
2017-12-28T08:11:40.755Z,99.90
2017-12-28T08:14:11.937Z,99.90
2017-12-28T08:16:41.431Z,99.90
2017-12-28T08:19:11.699Z,99.90
2017-12-28T08:21:41.598Z,99.90
2017-12-28T08:24:11.111Z,99.90
2017-12-28T08:26:40.614Z,99.90
2017-12-28T08:29:12.269Z,99.90
2017-12-28T08:31:42.537Z,99.90
2017-12-28T08:34:12.801Z,99.90
2017-12-28T08:36:42.295Z,99.90
2017-12-28T08:39:11.814Z,99.90
2017-12-28T08:41:42.456Z,99.90
2017-12-28T08:44:11.965Z,99.90
2017-12-28T08:46:41.484Z,99.90
2017-12-28T08:49:11.407Z,99.90
2017-12-28T08:51:40.880Z,99.90
2017-12-28T08:54:10.389Z,99.90
2017-12-28T08:56:41.708Z,99.90
2017-12-28T08:59:12.088Z,99.90
2017-12-28T09:01:42.359Z,99.90
2017-12-28T09:04:11.858Z,99.90
2017-12-28T09:06:42.143Z,99.90
2017-12-28T09:09:11.682Z,99.90
2017-12-28T09:11:41.339Z,99.90
2017-12-28T09:14:11.181Z,99.90
2017-12-28T09:16:40.718Z,99.90
2017-12-28T09:19:11.541Z,99.90
2017-12-28T09:21:41.048Z,99.90
2017-12-28T09:24:11.385Z,99.90
2017-12-28T09:26:40.744Z,99.90
2017-12-28T09:29:12.478Z,99.90
2017-12-28T09:31:41.777Z,99.90
2017-12-28T09:34:11.268Z,99.90
2017-12-28T09:36:41.544Z,99.90
2017-12-28T09:39:11.051Z,99.90
2017-12-28T09:41:40.600Z,99.90
2017-12-28T09:44:12.252Z,99.90
2017-12-28T09:46:41.755Z,99.90
2017-12-28T09:49:11.268Z,99.90
2017-12-28T09:51:41.158Z,99.90
2017-12-28T09:54:11.423Z,99.90
2017-12-28T09:56:40.966Z,99.90
2017-12-28T09:59:12.172Z,99.90
2017-12-28T10:01:41.685Z,99.90
2017-12-28T10:04:11.261Z,99.90
2017-12-28T10:06:40.770Z,99.90
2017-12-28T10:09:12.268Z,99.90
2017-12-28T10:11:41.751Z,99.80
2017-12-28T10:14:11.296Z,99.50
2017-12-28T10:16:41.269Z,99.10
2017-12-28T10:19:12.280Z,97.30
2017-12-28T10:21:42.108Z,97.30
2017-12-28T10:24:11.735Z,96.90
2017-12-28T10:26:41.250Z,97.40
2017-12-28T10:29:11.866Z,96.60
2017-12-28T10:31:41.362Z,96.60
2017-12-28T10:34:10.877Z,96.90
2017-12-28T10:36:40.696Z,96.70
2017-12-28T10:39:10.179Z,96.40
2017-12-28T10:41:39.782Z,95.70
2017-12-28T10:44:09.287Z,96.10
2017-12-28T10:46:38.512Z,94.50
2017-12-28T10:49:08.873Z,94.80
2017-12-28T10:51:38.671Z,94.80
2017-12-28T10:54:08.168Z,95.30
2017-12-28T10:56:37.672Z,95.60
2017-12-28T10:59:07.700Z,94.50
2017-12-28T11:01:37.158Z,94.50
2017-12-28T11:04:06.662Z,94.50
2017-12-28T11:06:36.222Z,94.30
2017-12-28T11:09:05.371Z,93.80
2017-12-28T11:11:34.866Z,93.10
2017-12-28T11:14:04.513Z,93.60
2017-12-28T11:16:34.005Z,92.50
2017-12-28T11:19:03.511Z,92.80
2017-12-28T11:21:33.798Z,92.00
2017-12-28T11:24:03.279Z,92.00
2017-12-28T11:26:34.290Z,91.20
2017-12-28T11:29:04.016Z,91.20
2017-12-28T11:31:33.515Z,91.30
2017-12-28T11:34:03.804Z,91.60
2017-12-28T11:36:33.419Z,91.20
2017-12-28T11:39:02.906Z,90.70
2017-12-28T11:41:32.590Z,89.80
2017-12-28T11:44:02.097Z,90.80
2017-12-28T11:46:32.739Z,90.30
2017-12-28T11:49:02.230Z,90.60
2017-12-28T11:51:37.291Z,91.40
2017-12-28T11:54:06.636Z,91.00
2017-12-28T11:56:40.764Z,90.80
2017-12-28T11:59:15.693Z,91.10
2017-12-28T12:01:51.004Z,91.40
2017-12-28T12:04:22.094Z,92.10
2017-12-28T12:09:57.465Z,91.40
2017-12-28T12:12:27.084Z,91.40
2017-12-28T12:14:56.599Z,92.10
2017-12-28T12:17:26.151Z,92.10
2017-12-28T12:19:55.654Z,92.10
2017-12-28T12:22:25.151Z,92.20
2017-12-28T12:24:54.661Z,91.60
2017-12-28T12:27:24.566Z,92.50
2017-12-28T12:29:54.213Z,92.40
2017-12-28T12:32:23.716Z,92.40
2017-12-28T12:34:53.641Z,92.50
2017-12-28T12:37:23.202Z,92.30
2017-12-28T12:39:52.707Z,92.70
2017-12-28T12:42:23.328Z,92.90
2017-12-28T12:44:52.820Z,92.90
2017-12-28T12:47:22.333Z,93.20
2017-12-28T12:49:51.880Z,93.30
2017-12-28T12:52:21.402Z,92.90
2017-12-28T12:54:50.928Z,93.00
2017-12-28T12:57:20.428Z,94.00
2017-12-28T12:59:49.977Z,93.60
2017-12-28T13:02:20.053Z,93.30
2017-12-28T13:04:49.536Z,93.20
2017-12-28T13:07:19.226Z,93.10
2017-12-28T13:09:48.723Z,92.60
2017-12-28T13:12:18.204Z,92.90
2017-12-28T13:14:47.690Z,92.60
2017-12-28T13:17:17.199Z,92.50
2017-12-28T13:19:46.559Z,92.90
2017-12-28T13:22:16.032Z,90.80
2017-12-28T13:24:45.539Z,91.00
2017-12-28T13:27:15.042Z,91.10
2017-12-28T13:29:44.538Z,90.40
2017-12-28T13:32:14.894Z,89.80
2017-12-28T13:34:44.375Z,89.60
2017-12-28T13:37:14.225Z,89.20
2017-12-28T13:39:44.476Z,89.00
2017-12-28T13:42:14.050Z,88.90
2017-12-28T13:44:43.741Z,89.50
2017-12-28T13:47:13.720Z,86.70
2017-12-28T13:49:43.291Z,86.70
2017-12-28T13:52:12.779Z,87.10
2017-12-28T13:54:42.322Z,87.90
2017-12-28T13:57:12.228Z,88.60
2017-12-28T13:59:41.716Z,88.70
2017-12-28T14:02:11.235Z,90.00
2017-12-28T14:04:41.114Z,89.60
2017-12-28T14:07:10.604Z,90.10
2017-12-28T14:09:40.299Z,89.60
2017-12-28T14:12:09.874Z,89.40
2017-12-28T14:14:39.386Z,89.90
2017-12-28T14:17:09.039Z,90.00
2017-12-28T14:19:38.526Z,88.90
2017-12-28T14:22:08.044Z,87.30
2017-12-28T14:24:38.476Z,87.80
2017-12-28T14:27:08.036Z,87.80
2017-12-28T14:29:38.367Z,88.10
2017-12-28T14:32:07.872Z,88.10
2017-12-28T14:34:37.387Z,88.90
2017-12-28T14:37:07.257Z,89.00
2017-12-28T14:39:36.746Z,88.50
2017-12-28T14:42:07.017Z,87.60
2017-12-28T14:44:38.047Z,87.50
2017-12-28T14:47:08.380Z,89.50
2017-12-28T14:49:39.482Z,90.00
2017-12-28T14:52:09.295Z,90.10
2017-12-28T14:54:38.798Z,90.60
2017-12-28T14:57:08.302Z,91.10
2017-12-28T14:59:38.198Z,91.50
2017-12-28T15:02:07.858Z,91.90
2017-12-28T15:04:37.382Z,92.00
2017-12-28T15:07:07.285Z,91.80
2017-12-28T15:09:36.768Z,91.80
2017-12-28T15:12:08.395Z,91.80
2017-12-28T15:14:38.373Z,92.40
2017-12-28T15:17:08.024Z,91.80
2017-12-28T15:19:37.502Z,92.20
2017-12-28T15:22:06.994Z,92.10
2017-12-28T15:24:38.754Z,91.80
2017-12-28T15:27:08.255Z,91.80
2017-12-28T15:29:37.821Z,92.40
2017-12-28T15:32:07.620Z,92.50
2017-12-28T15:34:37.103Z,93.10
2017-12-28T15:37:07.271Z,93.30
2017-12-28T15:39:36.769Z,93.40
2017-12-28T15:42:05.984Z,93.70
2017-12-28T15:44:35.786Z,94.20
2017-12-28T15:47:05.273Z,94.60
2017-12-28T15:49:34.853Z,94.80
2017-12-28T15:52:04.356Z,95.70
2017-12-28T15:54:33.840Z,96.00
2017-12-28T15:57:03.398Z,95.80
2017-12-28T15:59:32.938Z,96.00
2017-12-28T16:02:02.515Z,95.70
2017-12-28T16:04:32.882Z,96.30
2017-12-28T16:07:02.357Z,96.30
2017-12-28T16:09:31.850Z,96.50
2017-12-28T16:12:01.336Z,96.90
2017-12-28T16:14:31.171Z,97.30
2017-12-28T16:17:00.942Z,97.50
2017-12-28T16:19:31.558Z,97.80
2017-12-28T16:22:01.059Z,97.80
2017-12-28T16:24:30.550Z,97.80
2017-12-28T16:27:00.109Z,97.80
2017-12-28T16:29:29.623Z,98.00
2017-12-28T16:31:59.163Z,98.00
2017-12-28T16:34:29.050Z,97.80
2017-12-28T16:36:58.740Z,97.50
2017-12-28T16:39:28.228Z,97.50
2017-12-28T16:41:58.049Z,97.30
2017-12-28T16:44:27.712Z,97.00
2017-12-28T16:47:13.024Z,96.50
2017-12-28T16:49:48.370Z,96.50
2017-12-28T16:52:21.578Z,96.30
2017-12-28T16:54:52.649Z,96.00
2017-12-28T16:57:37.413Z,95.80
2017-12-28T17:00:19.066Z,96.00
2017-12-28T17:02:49.033Z,95.80
2017-12-28T17:05:19.295Z,96.20
2017-12-28T17:07:50.108Z,96.50
2017-12-28T17:10:19.785Z,96.50
2017-12-28T17:12:49.429Z,96.50
2017-12-28T17:15:19.302Z,96.40
2017-12-28T17:17:48.797Z,96.70
2017-12-28T17:20:18.295Z,96.40
2017-12-28T17:22:48.342Z,96.40
2017-12-28T17:25:18.570Z,96.30
2017-12-28T17:27:48.820Z,96.80
2017-12-28T17:30:19.085Z,96.80
2017-12-28T17:32:48.639Z,96.80
2017-12-28T17:35:18.163Z,96.90
2017-12-28T17:37:47.670Z,97.10
2017-12-28T17:40:17.445Z,97.50
2017-12-28T17:42:46.953Z,97.60
2017-12-28T17:45:16.761Z,97.80
2017-12-28T17:47:46.520Z,97.60
2017-12-28T17:50:16.778Z,97.80
2017-12-28T17:52:46.510Z,97.80
2017-12-28T17:55:16.393Z,98.20
2017-12-28T17:57:45.962Z,98.30
2017-12-28T18:00:15.509Z,98.70
2017-12-28T18:02:45.497Z,99.00
2017-12-28T18:05:14.996Z,99.20
2017-12-28T18:07:44.810Z,99.50
2017-12-28T18:10:14.336Z,99.70
2017-12-28T18:12:43.877Z,99.90
2017-12-28T18:15:13.400Z,99.80
2017-12-28T18:17:43.298Z,99.50
2017-12-28T18:20:12.799Z,99.40
2017-12-28T18:22:42.313Z,99.10
2017-12-28T18:25:11.838Z,99.20
2017-12-28T18:27:41.866Z,98.90
2017-12-28T18:30:11.348Z,99.00
2017-12-28T18:32:40.621Z,98.50
2017-12-28T18:35:10.502Z,98.70
2017-12-28T18:37:40.222Z,98.60
2017-12-28T18:40:09.746Z,98.50
2017-12-28T18:42:39.267Z,98.50
2017-12-28T18:45:08.776Z,98.50
2017-12-28T18:47:38.477Z,98.60
2017-12-28T18:50:08.349Z,98.60
2017-12-28T18:52:39.332Z,98.20
2017-12-28T18:55:08.958Z,98.20
2017-12-28T18:57:38.448Z,98.20
2017-12-28T19:00:09.876Z,98.20
2017-12-28T19:02:39.362Z,98.20
2017-12-28T19:05:09.936Z,98.30
2017-12-28T19:07:40.200Z,98.10
2017-12-28T19:10:09.730Z,98.00
2017-12-28T19:12:40.465Z,97.90
2017-12-28T19:15:10.729Z,97.70
2017-12-28T19:17:40.467Z,97.60
2017-12-28T19:20:10.004Z,98.00
2017-12-28T19:22:40.136Z,98.10
2017-12-28T19:25:09.696Z,98.00
2017-12-28T19:27:39.467Z,98.30
2017-12-28T19:30:09.305Z,98.20
2017-12-28T19:32:38.544Z,98.20
2017-12-28T19:35:08.559Z,98.10
2017-12-28T19:37:38.557Z,98.00
2017-12-28T19:40:07.844Z,98.00
2017-12-28T19:42:38.489Z,97.90
2017-12-28T19:45:07.977Z,97.50
2017-12-28T19:47:37.201Z,97.80
2017-12-28T19:50:06.734Z,98.00
2017-12-28T19:52:36.217Z,97.70
2017-12-28T19:55:05.805Z,97.90
2017-12-28T19:57:35.402Z,97.80
2017-12-28T20:00:05.646Z,97.50
2017-12-28T20:02:35.249Z,97.80
2017-12-28T20:05:05.010Z,97.90
2017-12-28T20:07:34.563Z,97.80
2017-12-28T20:10:03.803Z,97.80
2017-12-28T20:12:33.373Z,97.90
2017-12-28T20:15:02.593Z,97.90
2017-12-28T20:17:32.097Z,97.90
2017-12-28T20:20:01.580Z,98.00
2017-12-28T20:22:32.107Z,98.20
2017-12-28T20:25:01.618Z,97.80
2017-12-28T20:27:31.335Z,98.10
2017-12-28T20:30:00.854Z,98.20
2017-12-28T20:32:30.357Z,98.20
2017-12-28T20:34:59.831Z,98.40
2017-12-28T20:37:29.358Z,98.70
2017-12-28T20:39:58.854Z,98.40
2017-12-28T20:42:28.270Z,98.60
2017-12-28T20:44:57.519Z,98.70
2017-12-28T20:47:27.038Z,98.90
2017-12-28T20:49:56.573Z,99.20
2017-12-28T20:52:26.127Z,99.30
2017-12-28T20:54:55.614Z,99.50
2017-12-28T20:57:26.154Z,99.80
2017-12-28T20:59:56.419Z,99.90
2017-12-28T21:02:26.951Z,99.90
2017-12-28T21:04:56.464Z,99.90
2017-12-28T21:07:25.988Z,99.90
2017-12-28T21:09:55.522Z,99.90
2017-12-28T21:12:25.040Z,99.90
2017-12-28T21:14:54.610Z,99.90
2017-12-28T21:17:24.113Z,99.90
2017-12-28T21:19:53.624Z,99.90
2017-12-28T21:22:23.133Z,99.90
2017-12-28T21:24:52.930Z,99.90
2017-12-28T21:27:22.494Z,99.90
2017-12-28T21:29:51.989Z,99.90
2017-12-28T21:32:21.574Z,99.90
2017-12-28T21:34:51.148Z,99.90
2017-12-28T21:37:20.664Z,99.90
2017-12-28T21:39:50.519Z,99.90
2017-12-28T21:42:20.019Z,99.90
2017-12-28T21:44:49.531Z,99.90
2017-12-28T21:47:19.108Z,99.90
2017-12-28T21:49:49.101Z,99.90
2017-12-28T21:52:18.622Z,99.90
2017-12-28T21:54:48.529Z,99.90
2017-12-28T21:57:17.765Z,99.90
2017-12-28T21:59:48.325Z,99.90
2017-12-28T22:02:18.000Z,99.90
2017-12-28T22:04:47.505Z,99.90
2017-12-28T22:07:17.032Z,99.90
2017-12-28T22:09:46.522Z,99.90
2017-12-28T22:12:16.014Z,99.90
2017-12-28T22:14:45.429Z,99.90
2017-12-28T22:17:14.948Z,99.90
2017-12-28T22:19:44.673Z,99.90
2017-12-28T22:22:13.964Z,99.90
2017-12-28T22:24:43.453Z,99.90
2017-12-28T22:27:12.605Z,99.90
2017-12-28T22:29:42.157Z,99.90
2017-12-28T22:32:11.806Z,99.90
2017-12-28T22:34:42.442Z,99.90
2017-12-28T22:37:11.941Z,99.90
2017-12-28T22:39:41.440Z,99.90
2017-12-28T22:42:11.041Z,99.90
2017-12-28T22:44:41.106Z,99.90
2017-12-28T22:47:10.620Z,99.90
2017-12-28T22:49:41.181Z,99.90
2017-12-28T22:52:11.453Z,99.90
2017-12-28T22:54:41.334Z,99.90
2017-12-28T22:57:10.926Z,99.90
2017-12-28T22:59:40.472Z,99.90
2017-12-28T23:02:09.999Z,99.90
2017-12-28T23:04:39.482Z,99.90
2017-12-28T23:07:08.697Z,99.90
2017-12-28T23:09:40.078Z,99.90
2017-12-28T23:12:09.281Z,99.90
2017-12-28T23:14:40.461Z,99.90
2017-12-28T23:17:10.032Z,99.90
2017-12-28T23:19:40.599Z,99.90
2017-12-28T23:22:11.541Z,99.90
2017-12-28T23:24:42.074Z,99.90
2017-12-28T23:27:11.296Z,99.90
2017-12-28T23:29:40.521Z,99.90
2017-12-28T23:32:09.866Z,99.90
2017-12-28T23:34:39.076Z,99.90
2017-12-28T23:37:10.461Z,99.90
2017-12-28T23:39:40.711Z,99.90
2017-12-28T23:42:11.918Z,99.90
2017-12-28T23:44:41.429Z,99.90
2017-12-28T23:47:10.668Z,99.90
2017-12-28T23:49:39.890Z,99.90
2017-12-28T23:52:11.388Z,99.90
2017-12-28T23:54:41.273Z,99.90
2017-12-28T23:57:12.003Z,99.90
2017-12-28T23:59:41.849Z,99.90
